Station History

Weather Underground - logo

Station Historical Data
Daily Summary for August 12, 2017 Units:  English    Metric   Both
« Previous Day
Next Day »
Daily Weekly Monthly Yearly Custom
  High: Low: Average:
Temperature: TemperatureF °F 64.8 °F 82.1 °F
Dew Point: DewpointF °F 51.2 °F 60.4 °F
Humidity: Humidity % 20 % 52 %
Wind Speed: WindSpeedMPH mph 0.0 mph 1.5 mph
Wind Gust: WindSpeedGustMPH mph - -
Wind:- - SW
Pressure: PressureIn in 29.72 in -
Precipitation: 0.00 in    
Historical Graphs
 
 
Tabular Data for August 12, 2017
Time Temperature Dew Point Pressure Wind Wind Speed Wind Gust Humidity Rainfall Rate (Hourly)
TemperatureF °F DewpointF °F PressureIn in Calm     Humidity % HourlyPrecipIn in
00:04 73.3 °F 63.3 °F 29.76 in Calm     71 % 0.00 in
00:09 73.2 °F 63.6 °F 29.77 in Calm     72 % 0.00 in
00:14 72.7 °F 63.5 °F 29.77 in Calm     73 % 0.00 in
00:18 72.3 °F 62.4 °F 29.77 in Calm     71 % 0.00 in
00:23 72.1 °F 61.8 °F 29.77 in Calm     70 % 0.00 in
00:28 72.2 °F 61.9 °F 29.77 in Calm     70 % 0.00 in
00:33 72.2 °F 61.9 °F 29.77 in Calm     70 % 0.00 in
00:38 72.2 °F 61.9 °F 29.77 in Calm     70 % 0.00 in
00:43 72.1 °F 61.8 °F 29.77 in Calm     70 % 0.00 in
00:49 71.9 °F 61.6 °F 29.77 in Calm     70 % 0.00 in
00:54 71.6 °F 61.7 °F 29.77 in Calm     71 % 0.00 in
00:59 71.4 °F 61.9 °F 29.77 in ESE 1.2 mph   72 % 0.00 in
01:04 71.1 °F 62.0 °F 29.77 in Calm     73 % 0.00 in
01:09 70.8 °F 61.7 °F 29.77 in Calm     73 % 0.00 in
01:14 70.6 °F 61.1 °F 29.77 in Calm     72 % 0.00 in
01:19 70.5 °F 61.0 °F 29.77 in Calm     72 % 0.00 in
01:24 70.5 °F 61.0 °F 29.77 in Calm     72 % 0.00 in
01:29 70.7 °F 60.8 °F 29.77 in Calm     71 % 0.00 in
01:34 70.7 °F 60.8 °F 29.77 in Calm     71 % 0.00 in
01:39 70.7 °F 60.8 °F 29.77 in Calm     71 % 0.00 in
01:44 70.6 °F 60.7 °F 29.77 in ESE 1.2 mph 1.2 mph 71 % 0.00 in
01:49 70.5 °F 60.6 °F 29.77 in Calm     71 % 0.00 in
01:54 70.4 °F 61.7 °F 29.77 in Calm     74 % 0.00 in
01:59 70.2 °F 61.9 °F 29.77 in Calm     75 % 0.00 in
02:04 70.0 °F 61.7 °F 29.77 in Calm     75 % 0.00 in
02:09 69.7 °F 61.0 °F 29.77 in ESE 1.2 mph   74 % 0.00 in
02:14 69.6 °F 60.9 °F 29.77 in Calm     74 % 0.00 in
02:19 69.5 °F 60.8 °F 29.77 in Calm     74 % 0.00 in
02:24 69.5 °F 60.8 °F 29.78 in Calm     74 % 0.00 in
02:29 69.3 °F 60.7 °F 29.78 in Calm     74 % 0.00 in
02:34 69.2 °F 60.2 °F 29.78 in Calm     73 % 0.00 in
02:39 69.1 °F 60.1 °F 29.78 in Calm     73 % 0.00 in
02:44 69.1 °F 60.1 °F 29.78 in Calm     73 % 0.00 in
02:49 69.1 °F 59.7 °F 29.78 in Calm     72 % 0.00 in
02:54 69.0 °F 59.6 °F 29.78 in Calm     72 % 0.00 in
02:59 68.9 °F 59.5 °F 29.78 in Calm     72 % 0.00 in
03:04 68.8 °F 59.4 °F 29.78 in Calm     72 % 0.00 in
03:09 68.7 °F 59.7 °F 29.78 in Calm     73 % 0.00 in
03:14 68.5 °F 59.5 °F 29.78 in Calm     73 % 0.00 in
03:19 68.3 °F 59.7 °F 29.78 in Calm     74 % 0.00 in
03:24 68.1 °F 59.1 °F 29.78 in Calm     73 % 0.00 in
03:29 67.9 °F 59.3 °F 29.78 in Calm     74 % 0.00 in
03:34 67.8 °F 58.8 °F 29.78 in Calm     73 % 0.00 in
03:39 67.7 °F 59.1 °F 29.79 in Calm     74 % 0.00 in
03:44 67.7 °F 59.1 °F 29.79 in SE 1.2 mph   74 % 0.00 in
03:49 67.5 °F 59.3 °F 29.79 in Calm     75 % 0.00 in
03:54 67.4 °F 59.2 °F 29.79 in Calm     75 % 0.00 in
03:59 67.3 °F 59.1 °F 29.79 in Calm     75 % 0.00 in
04:01 67.3 °F 59.1 °F 29.79 in Calm     75 % 0.00 in
04:06 67.3 °F 59.1 °F 29.79 in Calm     75 % 0.00 in
04:11 67.2 °F 59.4 °F 29.79 in Calm     76 % 0.00 in
04:16 67.1 °F 59.6 °F 29.79 in Calm     77 % 0.00 in
04:21 67.0 °F 59.5 °F 29.79 in Calm     77 % 0.00 in
04:26 66.9 °F 59.5 °F 29.79 in Calm     77 % 0.00 in
04:31 66.8 °F 59.4 °F 29.79 in Calm     77 % 0.00 in
04:36 66.8 °F 59.4 °F 29.79 in Calm     77 % 0.00 in
04:41 66.7 °F 58.9 °F 29.79 in Calm     76 % 0.00 in
04:46 66.6 °F 58.8 °F 29.79 in Calm     76 % 0.00 in
04:51 66.6 °F 58.8 °F 29.79 in Calm     76 % 0.00 in
04:56 66.4 °F 59.0 °F 29.79 in Calm     77 % 0.00 in
05:01 66.2 °F 58.8 °F 29.79 in Calm     77 % 0.00 in
05:06 66.1 °F 58.7 °F 29.80 in Calm     77 % 0.00 in
05:11 65.8 °F 58.7 °F 29.79 in Calm     78 % 0.00 in
05:16 65.6 °F 58.6 °F 29.80 in Calm     78 % 0.00 in
05:21 65.5 °F 58.5 °F 29.80 in Calm     78 % 0.00 in
05:26 65.6 °F 58.6 °F 29.80 in Calm     78 % 0.00 in
05:31 65.6 °F 58.6 °F 29.80 in SE 1.2 mph 1.2 mph 78 % 0.00 in
05:36 65.6 °F 58.6 °F 29.80 in Calm     78 % 0.00 in
05:41 65.6 °F 58.6 °F 29.80 in Calm     78 % 0.00 in
05:46 65.4 °F 58.7 °F 29.80 in Calm     79 % 0.00 in
05:51 65.3 °F 58.6 °F 29.80 in Calm   0.1 mph 79 % 0.00 in
05:56 65.1 °F 58.8 °F 29.81 in Calm     80 % 0.00 in
06:01 65.0 °F 58.7 °F 29.81 in Calm     80 % 0.00 in
06:04 64.9 °F 58.6 °F 29.81 in SE 1.2 mph   80 % 0.00 in
06:09 64.8 °F 58.5 °F 29.81 in SE 1.2 mph 1.2 mph 80 % 0.00 in
06:14 64.8 °F 58.5 °F 29.81 in Calm     80 % 0.00 in
06:19 64.8 °F 58.5 °F 29.82 in ESE 1.2 mph 1.2 mph 80 % 0.00 in
06:25 64.9 °F 58.2 °F 29.82 in Calm     79 % 0.00 in
06:30 65.0 °F 58.0 °F 29.82 in Calm     78 % 0.00 in
06:35 65.0 °F 58.0 °F 29.82 in ESE 1.2 mph   78 % 0.00 in
06:40 65.0 °F 58.0 °F 29.82 in Calm     78 % 0.00 in
06:45 65.1 °F 58.1 °F 29.82 in Calm     78 % 0.00 in
06:50 65.2 °F 58.2 °F 29.82 in ESE 1.2 mph   78 % 0.00 in
06:55 65.4 °F 58.4 °F 29.83 in Calm     78 % 0.00 in
07:00 65.6 °F 58.2 °F 29.83 in ESE 1.2 mph   77 % 0.00 in
07:05 66.0 °F 58.6 °F 29.83 in SE 1.2 mph 1.2 mph 77 % 0.00 in
07:07 66.2 °F 58.8 °F 29.83 in SE 1.2 mph 1.2 mph 77 % 0.00 in
07:12 66.8 °F 58.6 °F 29.83 in ESE 1.2 mph 1.2 mph 75 % 0.00 in
07:17 67.3 °F 59.1 °F 29.83 in ESE 1.2 mph 1.2 mph 75 % 0.00 in
07:22 67.8 °F 59.2 °F 29.83 in ESE 1.0 mph   74 % 0.00 in
07:27 68.6 °F 59.2 °F 29.83 in SE 1.2 mph 1.2 mph 72 % 0.00 in
07:32 69.8 °F 60.0 °F 29.83 in SE 1.2 mph 1.2 mph 71 % 0.00 in
07:37 70.8 °F 60.1 °F 29.84 in SE 1.2 mph 1.2 mph 69 % 0.00 in
07:42 71.6 °F 60.5 °F 29.84 in Calm     68 % 0.00 in
07:47 72.4 °F 60.4 °F 29.84 in ESE 2.3 mph 2.3 mph 66 % 0.00 in
07:52 73.0 °F 61.0 °F 29.84 in SE 1.2 mph 1.2 mph 66 % 0.00 in
07:57 73.7 °F 61.2 °F 29.84 in SE 1.2 mph 1.2 mph 65 % 0.00 in
08:02 74.2 °F 62.1 °F 29.84 in Calm     66 % 0.00 in
08:07 74.7 °F 61.7 °F 29.84 in SSE 1.2 mph 1.2 mph 64 % 0.00 in
08:12 75.1 °F 61.6 °F 29.84 in East 2.3 mph 2.3 mph 63 % 0.00 in
08:17 75.5 °F 62.5 °F 29.84 in South 3.5 mph 3.5 mph 64 % 0.00 in
08:22 75.8 °F 62.8 °F 29.84 in East 3.5 mph 3.5 mph 64 % 0.00 in
08:27 75.9 °F 62.8 °F 29.84 in East 2.3 mph 2.3 mph 64 % 0.00 in
08:32 76.5 °F 63.0 °F 29.84 in ESE 4.6 mph 4.6 mph 63 % 0.00 in
08:37 76.9 °F 63.3 °F 29.84 in SSE 2.0 mph 2.0 mph 63 % 0.00 in
08:42 77.5 °F 63.5 °F 29.84 in East 4.6 mph 4.6 mph 62 % 0.00 in
08:47 77.9 °F 63.8 °F 29.84 in ESE 2.3 mph 2.3 mph 62 % 0.00 in
08:52 78.5 °F 63.5 °F 29.84 in South 1.2 mph   60 % 0.00 in
08:57 79.0 °F 63.9 °F 29.84 in South 1.2 mph 1.2 mph 60 % 0.00 in
09:02 79.6 °F 64.5 °F 29.84 in SSE 1.0 mph 1.0 mph 60 % 0.00 in
09:07 79.7 °F 63.6 °F 29.84 in SSE 3.5 mph 3.5 mph 58 % 0.00 in
09:12 80.0 °F 63.4 °F 29.84 in South 3.5 mph 3.5 mph 57 % 0.00 in
09:17 80.5 °F 63.4 °F 29.83 in ESE 3.5 mph 3.5 mph 56 % 0.00 in
09:22 80.8 °F 64.1 °F 29.83 in ENE 3.5 mph 3.5 mph 57 % 0.00 in
09:27 81.1 °F 64.9 °F 29.83 in SSE 2.3 mph 2.3 mph 58 % 0.00 in
09:32 81.5 °F 63.8 °F 29.83 in South 3.5 mph 3.5 mph 55 % 0.00 in
09:37 82.2 °F 64.4 °F 29.83 in East 3.5 mph 3.5 mph 55 % 0.00 in
09:42 82.7 °F 64.4 °F 29.83 in South 4.6 mph 4.6 mph 54 % 0.00 in
09:47 83.1 °F 64.7 °F 29.83 in SW 3.5 mph 3.5 mph 54 % 0.00 in
09:52 83.9 °F 65.5 °F 29.83 in SSE 3.5 mph 3.5 mph 54 % 0.00 in
09:57 84.2 °F 65.8 °F 29.83 in SW 4.0 mph 4.0 mph 54 % 0.00 in
10:02 84.7 °F 66.2 °F 29.83 in SSE 2.0 mph 2.0 mph 54 % 0.00 in
10:07 85.2 °F 65.0 °F 29.83 in SSE 2.3 mph 2.3 mph 51 % 0.00 in
10:12 85.8 °F 65.6 °F 29.83 in SSE 2.3 mph 2.3 mph 51 % 0.00 in
10:17 85.9 °F 65.7 °F 29.83 in SSE 3.5 mph 3.5 mph 51 % 0.00 in
10:22 86.3 °F 65.5 °F 29.83 in SE 3.5 mph 3.5 mph 50 % 0.00 in
10:27 86.5 °F 64.5 °F 29.83 in South 2.3 mph 2.3 mph 48 % 0.00 in
10:32 86.6 °F 65.7 °F 29.83 in NW 3.0 mph 3.0 mph 50 % 0.00 in
10:37 86.7 °F 65.3 °F 29.84 in South 6.9 mph 6.9 mph 49 % 0.00 in
10:42 87.0 °F 67.2 °F 29.83 in SSE 3.5 mph 3.5 mph 52 % 0.00 in
10:47 87.3 °F 66.4 °F 29.83 in East 2.3 mph 2.3 mph 50 % 0.00 in
10:52 87.7 °F 67.3 °F 29.83 in ENE 2.3 mph 2.3 mph 51 % 0.00 in
10:57 88.0 °F 67.0 °F 29.83 in SSE 3.5 mph 3.5 mph 50 % 0.00 in
11:02 88.3 °F 66.7 °F 29.83 in SSE 5.8 mph 5.8 mph 49 % 0.00 in
11:07 88.4 °F 67.4 °F 29.83 in SW 2.3 mph 2.3 mph 50 % 0.00 in
11:12 88.6 °F 66.4 °F 29.83 in SE 4.6 mph 4.6 mph 48 % 0.00 in
11:17 88.7 °F 68.2 °F 29.83 in Calm     51 % 0.00 in
11:22 89.1 °F 67.5 °F 29.83 in ESE 3.5 mph 3.5 mph 49 % 0.00 in
11:27 89.4 °F 67.1 °F 29.83 in SSE 2.3 mph 2.3 mph 48 % 0.00 in
11:32 89.8 °F 68.1 °F 29.83 in ESE 3.5 mph 3.5 mph 49 % 0.00 in
11:37 90.1 °F 67.2 °F 29.83 in SSE 3.5 mph 3.5 mph 47 % 0.00 in
11:43 90.1 °F 67.8 °F 29.83 in SE 4.0 mph 4.0 mph 48 % 0.00 in
11:48 90.3 °F 66.7 °F 29.83 in WNW 2.3 mph 2.3 mph 46 % 0.00 in
11:53 90.4 °F 68.0 °F 29.82 in SE 2.3 mph 2.3 mph 48 % 0.00 in
11:58 91.0 °F 68.6 °F 29.82 in ESE 2.3 mph 2.3 mph 48 % 0.00 in
12:03 91.4 °F 68.3 °F 29.82 in South 3.5 mph 3.5 mph 47 % 0.00 in
12:08 91.5 °F 67.8 °F 29.82 in ESE 2.3 mph 2.3 mph 46 % 0.00 in
12:13 91.4 °F 68.3 °F 29.82 in SE 3.5 mph 3.5 mph 47 % 0.00 in
12:18 91.9 °F 67.5 °F 29.82 in WNW 3.5 mph 3.5 mph 45 % 0.00 in
12:23 91.9 °F 66.9 °F 29.82 in NW 2.3 mph 2.3 mph 44 % 0.00 in
12:28 91.8 °F 68.1 °F 29.82 in SE 3.5 mph 3.5 mph 46 % 0.00 in
12:33 92.4 °F 67.3 °F 29.81 in SE 2.3 mph 2.3 mph 44 % 0.00 in
12:38 93.0 °F 67.9 °F 29.81 in SSE 3.5 mph 3.5 mph 44 % 0.00 in
12:43 93.1 °F 65.2 °F 29.81 in WNW 1.2 mph 1.2 mph 40 % 0.00 in
12:48 93.4 °F 66.2 °F 29.81 in NNW 3.5 mph 3.5 mph 41 % 0.00 in
12:50 93.4 °F 66.2 °F 29.81 in NNE 1.2 mph 1.2 mph 41 % 0.00 in
12:55 93.5 °F 65.6 °F 29.81 in West 3.5 mph 3.5 mph 40 % 0.00 in
13:00 93.6 °F 67.1 °F 29.80 in WNW 2.3 mph 2.3 mph 42 % 0.00 in
13:05 94.3 °F 67.0 °F 29.80 in NNW 2.3 mph 2.3 mph 41 % 0.00 in
13:10 94.8 °F 65.2 °F 29.80 in NNE 2.3 mph 2.3 mph 38 % 0.00 in
13:15 94.9 °F 64.6 °F 29.80 in NW 2.0 mph 2.0 mph 37 % 0.00 in
13:20 94.8 °F 65.2 °F 29.80 in ESE 2.3 mph 2.3 mph 38 % 0.00 in
13:25 95.7 °F 66.0 °F 29.80 in NE 2.3 mph 2.3 mph 38 % 0.00 in
13:30 95.7 °F 64.5 °F 29.80 in North 2.3 mph 2.3 mph 36 % 0.00 in
13:35 96.0 °F 65.5 °F 29.79 in NE 1.2 mph 1.2 mph 37 % 0.00 in
13:40 96.2 °F 64.1 °F 29.79 in NNW 3.5 mph 3.5 mph 35 % 0.00 in
13:45 96.2 °F 64.9 °F 29.79 in SE 2.3 mph 2.3 mph 36 % 0.00 in
13:50 96.6 °F 65.3 °F 29.79 in East 3.5 mph 3.5 mph 36 % 0.00 in
13:55 97.2 °F 63.3 °F 29.79 in SE 1.2 mph 1.2 mph 33 % 0.00 in
14:00 97.5 °F 65.2 °F 29.79 in NW 1.2 mph 1.2 mph 35 % 0.00 in
14:05 98.0 °F 64.9 °F 29.79 in NW 5.8 mph 5.8 mph 34 % 0.00 in
14:11 98.1 °F 64.9 °F 29.78 in ESE 3.5 mph 3.5 mph 34 % 0.00 in
14:16 98.0 °F 64.9 °F 29.78 in NNE 3.5 mph 3.5 mph 34 % 0.00 in
14:21 98.0 °F 64.9 °F 29.78 in West 3.0 mph 3.0 mph 34 % 0.00 in
14:26 97.7 °F 64.6 °F 29.78 in NW 1.2 mph 1.2 mph 34 % 0.00 in
14:31 98.2 °F 64.2 °F 29.78 in South 3.5 mph 3.5 mph 33 % 0.00 in
14:36 98.7 °F 64.6 °F 29.77 in SW 1.2 mph 1.2 mph 33 % 0.00 in
14:41 99.1 °F 65.0 °F 29.77 in West 3.5 mph 3.5 mph 33 % 0.00 in
14:46 99.5 °F 64.4 °F 29.77 in SE 3.5 mph 3.5 mph 32 % 0.00 in
14:51 99.7 °F 62.7 °F 29.77 in NW 2.3 mph 2.3 mph 30 % 0.00 in
14:56 99.6 °F 56.4 °F 29.77 in NNW 3.5 mph 3.5 mph 24 % 0.00 in
15:01 99.3 °F 57.3 °F 29.77 in NNW 3.5 mph 3.5 mph 25 % 0.00 in
15:06 99.6 °F 58.6 °F 29.76 in NW 4.0 mph 4.0 mph 26 % 0.00 in
15:11 99.3 °F 57.3 °F 29.76 in NW 3.5 mph 3.5 mph 25 % 0.00 in
15:16 99.3 °F 56.1 °F 29.76 in NW 6.9 mph 6.9 mph 24 % 0.00 in
15:21 99.0 °F 54.7 °F 29.76 in NW 6.0 mph 6.0 mph 23 % 0.00 in
15:26 99.2 °F 57.2 °F 29.76 in NE 4.6 mph 4.6 mph 25 % 0.00 in
15:31 99.3 °F 51.2 °F 29.76 in NW 3.5 mph 3.5 mph 20 % 0.00 in
15:36 99.3 °F 52.5 °F 29.76 in NW 4.0 mph 4.0 mph 21 % 0.00 in
15:41 99.3 °F 52.5 °F 29.76 in NNW 4.6 mph 4.6 mph 21 % 0.00 in
15:46 99.1 °F 52.3 °F 29.76 in NW 3.5 mph 3.5 mph 21 % 0.00 in
15:51 99.2 °F 54.9 °F 29.75 in NW 3.5 mph 3.5 mph 23 % 0.00 in
15:56 99.3 °F 53.8 °F 29.75 in West 4.6 mph 4.6 mph 22 % 0.00 in
16:01 99.2 °F 53.7 °F 29.75 in NW 3.5 mph 3.5 mph 22 % 0.00 in
16:06 99.3 °F 55.0 °F 29.75 in WNW 3.5 mph 3.5 mph 23 % 0.00 in
16:11 99.1 °F 53.6 °F 29.75 in NNW 6.0 mph 6.0 mph 22 % 0.00 in
16:41 98.7 °F 57.9 °F 29.75 in NW 2.3 mph 2.3 mph 26 % 0.00 in
16:46 99.0 °F 57.0 °F 29.75 in NW 3.0 mph 3.0 mph 25 % 0.00 in
16:51 98.9 °F 58.0 °F 29.75 in NW 3.5 mph 3.5 mph 26 % 0.00 in
16:56 99.1 °F 58.2 °F 29.75 in NW 3.0 mph 3.0 mph 26 % 0.00 in
17:01 99.1 °F 57.1 °F 29.75 in WNW 3.5 mph 3.5 mph 25 % 0.00 in
17:06 99.1 °F 57.1 °F 29.74 in WNW 2.3 mph 2.3 mph 25 % 0.00 in
17:11 99.1 °F 53.6 °F 29.74 in NW 3.5 mph 3.5 mph 22 % 0.00 in
17:16 99.2 °F 54.9 °F 29.74 in North 2.3 mph 2.3 mph 23 % 0.00 in
17:21 99.4 °F 56.2 °F 29.74 in SW 1.2 mph 1.2 mph 24 % 0.00 in
17:26 99.5 °F 55.1 °F 29.74 in NNE 3.5 mph 3.5 mph 23 % 0.00 in
17:31 99.2 °F 54.9 °F 29.74 in WNW 4.6 mph 4.6 mph 23 % 0.00 in
17:36 99.3 °F 57.3 °F 29.73 in NW 2.3 mph 2.3 mph 25 % 0.00 in
17:41 99.5 °F 52.7 °F 29.73 in WNW 3.5 mph 3.5 mph 21 % 0.00 in
17:46 99.4 °F 53.8 °F 29.73 in NW 3.5 mph 3.5 mph 22 % 0.00 in
17:51 99.2 °F 54.9 °F 29.73 in WNW 2.3 mph 2.3 mph 23 % 0.00 in
17:57 98.8 °F 54.6 °F 29.73 in NNW 1.2 mph 1.3 mph 23 % 0.00 in
18:02 98.5 °F 55.5 °F 29.73 in WNW 2.3 mph 2.3 mph 24 % 0.00 in
18:07 98.3 °F 55.3 °F 29.73 in NNW 2.3 mph 2.3 mph 24 % 0.00 in
18:12 98.2 °F 52.8 °F 29.73 in WNW 2.3 mph 2.3 mph 22 % 0.00 in
18:17 98.1 °F 52.8 °F 29.73 in WNW 2.3 mph 2.3 mph 22 % 0.00 in
18:22 97.9 °F 52.6 °F 29.73 in NW 2.3 mph 2.3 mph 22 % 0.00 in
18:27 97.8 °F 53.7 °F 29.73 in NW 3.5 mph 3.5 mph 23 % 0.00 in
18:32 97.5 °F 54.6 °F 29.72 in NW 1.2 mph 1.2 mph 24 % 0.00 in
18:37 97.3 °F 54.5 °F 29.73 in NNW 1.2 mph 1.2 mph 24 % 0.00 in
18:43 97.2 °F 55.5 °F 29.72 in NW 1.2 mph 1.2 mph 25 % 0.00 in
18:48 96.6 °F 53.9 °F 29.72 in NW 1.2 mph 1.2 mph 24 % 0.00 in
18:53 95.9 °F 54.4 °F 29.72 in NW 2.3 mph 2.3 mph 25 % 0.00 in
18:58 95.4 °F 56.1 °F 29.72 in WNW 1.2 mph 1.2 mph 27 % 0.00 in
19:03 94.9 °F 55.7 °F 29.72 in WSW 2.3 mph 2.3 mph 27 % 0.00 in
19:08 94.5 °F 56.4 °F 29.72 in NW 1.2 mph 1.2 mph 28 % 0.00 in
19:13 94.0 °F 55.9 °F 29.73 in Calm     28 % 0.00 in
19:18 93.6 °F 56.6 °F 29.73 in Calm     29 % 0.00 in
19:23 93.2 °F 57.2 °F 29.73 in Calm     30 % 0.00 in
19:24 93.1 °F 57.1 °F 29.73 in Calm     30 % 0.00 in
19:29 92.6 °F 57.6 °F 29.73 in Calm     31 % 0.00 in
19:34 91.9 °F 57.8 °F 29.73 in Calm     32 % 0.00 in
19:39 91.4 °F 57.4 °F 29.73 in Calm     32 % 0.00 in
19:44 91.0 °F 57.0 °F 29.73 in Calm     32 % 0.00 in
19:49 90.5 °F 59.1 °F 29.73 in Calm     35 % 0.00 in
19:54 89.6 °F 57.5 °F 29.73 in Calm     34 % 0.00 in
19:59 88.9 °F 59.3 °F 29.74 in Calm     37 % 0.00 in
20:02 88.4 °F 58.8 °F 29.74 in Calm     37 % 0.00 in
20:07 87.7 °F 60.4 °F 29.74 in Calm     40 % 0.00 in
20:12 87.0 °F 60.5 °F 29.74 in Calm     41 % 0.00 in
20:17 86.3 °F 60.5 °F 29.74 in Calm     42 % 0.00 in
20:19 86.1 °F 60.3 °F 29.74 in Calm     42 % 0.00 in
20:22 85.6 °F 60.5 °F 29.74 in Calm     43 % 0.00 in
20:24 85.5 °F 61.7 °F 29.74 in Calm     45 % 0.00 in
20:27 85.0 °F 60.6 °F 29.74 in Calm     44 % 0.00 in
20:29 84.9 °F 60.6 °F 29.74 in Calm     44 % 0.00 in
20:34 84.3 °F 61.3 °F 29.74 in Calm     46 % 0.00 in
20:39 83.7 °F 61.3 °F 29.74 in Calm     47 % 0.00 in
20:44 83.2 °F 62.1 °F 29.75 in Calm     49 % 0.00 in
20:49 82.6 °F 63.2 °F 29.75 in Calm     52 % 0.00 in
20:54 82.0 °F 61.5 °F 29.75 in Calm     50 % 0.00 in
20:59 81.6 °F 60.6 °F 29.75 in Calm     49 % 0.00 in
21:04 81.3 °F 62.5 °F 29.75 in Calm     53 % 0.00 in
21:09 80.9 °F 61.6 °F 29.75 in Calm     52 % 0.00 in
21:14 80.5 °F 62.8 °F 29.76 in Calm     55 % 0.00 in
21:19 80.5 °F 61.8 °F 29.75 in Calm     53 % 0.00 in
21:24 81.3 °F 60.9 °F 29.75 in Calm     50 % 0.00 in
21:29 81.9 °F 59.7 °F 29.76 in Calm     47 % 0.00 in
21:34 82.4 °F 59.5 °F 29.76 in NNW 1.2 mph 1.2 mph 46 % 0.00 in
21:39 82.6 °F 59.7 °F 29.76 in Calm     46 % 0.00 in
21:44 82.2 °F 61.1 °F 29.76 in Calm     49 % 0.00 in
21:49 82.2 °F 60.0 °F 29.76 in NNW 1.2 mph   47 % 0.00 in
21:50 82.2 °F 60.0 °F 29.76 in Calm     47 % 0.00 in
21:55 82.3 °F 60.1 °F 29.76 in NW 1.0 mph 1.0 mph 47 % 0.00 in
22:00 82.6 °F 60.3 °F 29.76 in NW 1.0 mph   47 % 0.00 in
22:05 82.6 °F 60.3 °F 29.76 in NW 1.2 mph 1.2 mph 47 % 0.00 in
22:10 82.6 °F 60.3 °F 29.76 in NW 1.0 mph 1.0 mph 47 % 0.00 in
22:11 82.6 °F 60.3 °F 29.77 in NW 1.2 mph 1.2 mph 47 % 0.00 in
22:16 82.4 °F 60.1 °F 29.76 in NW 1.2 mph 1.2 mph 47 % 0.00 in
22:21 82.0 °F 60.4 °F 29.77 in Calm     48 % 0.00 in
22:26 81.7 °F 60.1 °F 29.77 in NW 1.2 mph 1.2 mph 48 % 0.00 in
22:31 81.3 °F 60.3 °F 29.77 in NW 2.3 mph 2.3 mph 49 % 0.00 in
22:36 81.2 °F 59.6 °F 29.77 in NW 3.5 mph 3.5 mph 48 % 0.00 in
22:41 81.2 °F 59.6 °F 29.77 in NW 3.5 mph 3.5 mph 48 % 0.00 in
22:46 81.0 °F 59.5 °F 29.77 in NW 2.3 mph 2.3 mph 48 % 0.00 in
22:51 81.2 °F 59.6 °F 29.77 in WNW 3.5 mph 3.5 mph 48 % 0.00 in
22:56 81.8 °F 59.0 °F 29.77 in NW 2.3 mph 2.3 mph 46 % 0.00 in
23:01 82.1 °F 59.3 °F 29.77 in NW 2.3 mph 2.3 mph 46 % 0.00 in
23:06 82.3 °F 59.4 °F 29.78 in WNW 1.2 mph 1.2 mph 46 % 0.00 in
23:11 82.3 °F 58.8 °F 29.78 in NW 1.2 mph 1.2 mph 45 % 0.00 in
23:16 82.3 °F 58.8 °F 29.78 in NW 2.3 mph 2.3 mph 45 % 0.00 in
23:19 82.3 °F 58.8 °F 29.78 in NW 2.3 mph 2.3 mph 45 % 0.00 in
23:24 81.9 °F 59.1 °F 29.78 in NW 2.3 mph 2.3 mph 46 % 0.00 in
23:29 81.5 °F 59.3 °F 29.78 in NW 1.2 mph 1.2 mph 47 % 0.00 in
23:34 80.8 °F 59.3 °F 29.78 in Calm     48 % 0.00 in
23:39 80.5 °F 59.0 °F 29.78 in Calm     48 % 0.00 in
23:44 80.2 °F 58.7 °F 29.78 in NW 2.3 mph 2.3 mph 48 % 0.00 in
23:49 80.2 °F 58.7 °F 29.78 in Calm     48 % 0.00 in
23:54 80.0 °F 59.1 °F 29.78 in Calm     49 % 0.00 in
23:59 79.5 °F 59.2 °F 29.78 in Calm     50 % 0.00 in
Park Place, Exeter, Tulare County, California, USA
Compliments of Weather Underground - 2.75 mb